Time;durP1;ratioP1;P1;durP2;ratioP2;P2;SDS_P1;SDS_P2;PMS_P1;PMS_P2;Temp;Humidity;BMP_temperature;BMP_pressure;BME280_temperature;BME280_humidity;BME280_pressure;Samples;Min_cycle;Max_cycle;Signal;HPM_P1;HPM_P2
2024/04/03 00:00:47;;;;;;;16.13;6.87;;;;;;;;;;5073402;28;20491;-80
2024/04/03 00:03:13;;;;;;;13.00;7.30;;;;;;;;;;5077047;28;20748;-81
2024/04/03 00:05:39;;;;;;;11.43;7.20;;;;;;;;;;5077032;28;20448;-79
2024/04/03 00:08:05;;;;;;;14.10;8.20;;;;;;;;;;5077278;28;20284;-79
2024/04/03 00:10:32;;;;;;;13.40;7.30;;;;;;;;;;5074844;28;20451;-81
2024/04/03 00:12:59;;;;;;;15.63;8.73;;;;;;;;;;5078796;28;20397;-81
2024/04/03 00:15:25;;;;;;;19.83;10.20;;;;;;;;;;5074488;28;20492;-80
2024/04/03 00:17:51;;;;;;;14.07;8.03;;;;;;;;;;5076051;28;20456;-80
2024/04/03 00:20:17;;;;;;;15.77;8.20;;;;;;;;;;5076089;28;20483;-78
2024/04/03 00:22:43;;;;;;;14.33;8.40;;;;;;;;;;5074381;28;20206;-79
2024/04/03 00:25:09;;;;;;;13.10;7.80;;;;;;;;;;5075233;28;20485;-79
2024/04/03 00:27:35;;;;;;;19.90;8.47;;;;;;;;;;5074478;28;20633;-79
2024/04/03 00:30:03;;;;;;;15.10;8.57;;;;;;;;;;5073810;28;20448;-80
2024/04/03 00:32:29;;;;;;;14.17;8.17;;;;;;;;;;5069050;28;20245;-80
2024/04/03 00:34:55;;;;;;;15.90;8.30;;;;;;;;;;5072647;28;20472;-81
2024/04/03 00:37:21;;;;;;;16.03;8.80;;;;;;;;;;5076254;28;20482;-80
2024/04/03 00:39:47;;;;;;;15.53;8.07;;;;;;;;;;5072202;28;20462;-80
2024/04/03 00:42:13;;;;;;;12.93;8.40;;;;;;;;;;5074820;28;20206;-79
2024/04/03 00:44:43;;;;;;;11.50;8.23;;;;;;;;;;5075414;28;20473;-80
2024/04/03 00:47:10;;;;;;;12.40;8.03;;;;;;;;;;5075669;28;20234;-80
2024/04/03 00:49:36;;;;;;;21.30;7.83;;;;;;;;;;5071679;28;20458;-78
2024/04/03 00:52:02;;;;;;;15.97;8.10;;;;;;;;;;5074903;28;20501;-78
2024/04/03 00:54:28;;;;;;;17.93;9.60;;;;;;;;;;5074386;28;20476;-79
2024/04/03 00:56:54;;;;;;;10.27;6.70;;;;;;;;;;5074569;28;20201;-80
2024/04/03 00:59:21;;;;;;;11.37;6.50;;;;;;;;;;5070956;28;20482;-79
2024/04/03 01:01:47;;;;;;;18.33;7.27;;;;;;;;;;5072543;28;20241;-80
2024/04/03 01:04:15;;;;;;;10.40;6.43;;;;;;;;;;5075871;28;20448;-78
2024/04/03 01:06:41;;;;;;;10.07;5.73;;;;;;;;;;5073117;28;20490;-80
2024/04/03 01:09:07;;;;;;;10.90;6.03;;;;;;;;;;5070859;28;20703;-80
2024/04/03 01:11:33;;;;;;;8.13;6.20;;;;;;;;;;5068472;28;20213;-80
2024/04/03 01:13:59;;;;;;;11.80;7.43;;;;;;;;;;5076095;28;20484;-80
2024/04/03 01:16:25;;;;;;;11.87;5.83;;;;;;;;;;5071681;28;20209;-80
2024/04/03 01:18:52;;;;;;;7.47;5.40;;;;;;;;;;5075595;28;20537;-80
2024/04/03 01:21:19;;;;;;;17.00;5.67;;;;;;;;;;5073751;28;20742;-79
2024/04/03 01:23:45;;;;;;;7.17;5.37;;;;;;;;;;5075244;28;20452;-79
2024/04/03 01:26:12;;;;;;;11.07;5.17;;;;;;;;;;5073375;28;20498;-80
2024/04/03 01:28:38;;;;;;;9.33;4.47;;;;;;;;;;5072667;28;20469;-80
2024/04/03 01:31:04;;;;;;;6.90;5.70;;;;;;;;;;5074817;28;20470;-80
2024/04/03 01:33:30;;;;;;;12.23;5.50;;;;;;;;;;5074673;28;20461;-80
2024/04/03 01:35:55;;;;;;;6.60;5.30;;;;;;;;;;5071318;28;20214;-80
2024/04/03 01:38:22;;;;;;;10.87;6.50;;;;;;;;;;5074871;28;20489;-79
2024/04/03 01:40:47;;;;;;;15.50;6.00;;;;;;;;;;5072010;28;20213;-80
2024/04/03 01:43:15;;;;;;;15.83;5.60;;;;;;;;;;5071849;28;20513;-80
2024/04/03 01:45:41;;;;;;;5.83;4.43;;;;;;;;;;5073368;28;20201;-81
2024/04/03 01:48:07;;;;;;;12.03;5.60;;;;;;;;;;5073867;28;20460;-80
2024/04/03 01:50:35;;;;;;;9.37;5.13;;;;;;;;;;5075254;28;20214;-80
2024/04/03 01:53:02;;;;;;;10.87;6.00;;;;;;;;;;5073614;28;20455;-79
2024/04/03 01:55:27;;;;;;;7.17;4.77;;;;;;;;;;5074820;28;20494;-79
2024/04/03 01:57:54;;;;;;;8.00;4.97;;;;;;;;;;5071389;28;20443;-79
2024/04/03 02:00:21;;;;;;;9.50;5.20;;;;;;;;;;5075132;28;20241;-79
2024/04/03 02:02:47;;;;;;;11.03;5.00;;;;;;;;;;5073996;28;20842;-80
2024/04/03 02:05:13;;;;;;;6.23;4.70;;;;;;;;;;5069209;28;21028;-80
2024/04/03 02:07:39;;;;;;;8.10;4.83;;;;;;;;;;5075383;28;20447;-79
2024/04/03 02:10:05;;;;;;;9.00;4.57;;;;;;;;;;5069908;28;20210;-79
2024/04/03 02:12:31;;;;;;;14.57;5.10;;;;;;;;;;5075446;28;20513;-81
2024/04/03 02:14:57;;;;;;;5.83;5.23;;;;;;;;;;5071995;28;20264;-79
2024/04/03 02:17:25;;;;;;;9.20;4.80;;;;;;;;;;5073459;28;20456;-80
2024/04/03 02:19:50;;;;;;;9.70;4.37;;;;;;;;;;5073014;28;20202;-81
2024/04/03 02:22:17;;;;;;;6.37;5.30;;;;;;;;;;5077970;28;20459;-81
2024/04/03 02:24:42;;;;;;;10.90;4.97;;;;;;;;;;5074304;28;20206;-79
2024/04/03 02:27:09;;;;;;;12.63;6.10;;;;;;;;;;5078293;28;20455;-81
2024/04/03 02:29:34;;;;;;;11.33;5.47;;;;;;;;;;5077024;28;20206;-81
2024/04/03 02:32:00;;;;;;;6.37;5.50;;;;;;;;;;5078017;28;20443;-81
2024/04/03 02:34:27;;;;;;;11.13;6.50;;;;;;;;;;5076544;28;20250;-76
2024/04/03 02:36:54;;;;;;;7.23;5.73;;;;;;;;;;5074311;28;20465;-76
2024/04/03 02:39:19;;;;;;;10.17;6.60;;;;;;;;;;5076385;28;21116;-76
2024/04/03 02:41:46;;;;;;;11.40;7.90;;;;;;;;;;5067146;28;20915;-76
2024/04/03 02:44:11;;;;;;;17.97;7.73;;;;;;;;;;5078289;28;20254;-75
2024/04/03 02:46:37;;;;;;;12.70;8.93;;;;;;;;;;5074761;28;20436;-75
2024/04/03 02:49:03;;;;;;;14.13;9.27;;;;;;;;;;5078573;28;20233;-75
2024/04/03 02:51:31;;;;;;;11.80;9.67;;;;;;;;;;5077153;28;20467;-76
2024/04/03 02:53:56;;;;;;;10.50;8.90;;;;;;;;;;5077397;28;20194;-77
2024/04/03 02:56:22;;;;;;;11.60;9.47;;;;;;;;;;5077845;28;20493;-77
2024/04/03 02:58:48;;;;;;;14.10;9.47;;;;;;;;;;5073201;28;20233;-77
2024/04/03 03:01:14;;;;;;;16.07;10.00;;;;;;;;;;5077737;28;20459;-77
2024/04/03 03:03:40;;;;;;;12.03;10.83;;;;;;;;;;5075725;28;20248;-77
2024/04/03 03:06:07;;;;;;;13.67;10.43;;;;;;;;;;5072779;28;20444;-77
2024/04/03 03:08:34;;;;;;;11.73;10.07;;;;;;;;;;5070798;28;20230;-76
2024/04/03 03:11:01;;;;;;;13.73;10.97;;;;;;;;;;5072922;28;20462;-76
2024/04/03 03:13:27;;;;;;;15.33;10.73;;;;;;;;;;5077357;28;20462;-76
2024/04/03 03:15:54;;;;;;;14.13;10.83;;;;;;;;;;5072837;28;20936;-76
2024/04/03 03:18:20;;;;;;;13.83;10.50;;;;;;;;;;5073035;28;20522;-75
2024/04/03 03:20:47;;;;;;;14.00;10.17;;;;;;;;;;5073043;28;20860;-76
2024/04/03 03:23:12;;;;;;;13.40;12.00;;;;;;;;;;5078635;28;20683;-76
2024/04/03 03:25:40;;;;;;;12.80;10.90;;;;;;;;;;5075782;28;20558;-76
2024/04/03 03:28:06;;;;;;;13.67;11.37;;;;;;;;;;5077128;28;20210;-77
2024/04/03 03:30:32;;;;;;;14.73;12.63;;;;;;;;;;5083315;28;20455;-76
2024/04/03 03:32:57;;;;;;;12.23;10.93;;;;;;;;;;5072172;28;20633;-76
2024/04/03 03:35:24;;;;;;;13.63;11.77;;;;;;;;;;5077289;28;20476;-77
2024/04/03 03:37:50;;;;;;;13.47;12.07;;;;;;;;;;5078781;28;20197;-77
2024/04/03 03:40:17;;;;;;;14.60;11.87;;;;;;;;;;5075275;28;20495;-77
2024/04/03 03:42:45;;;;;;;16.90;13.10;;;;;;;;;;5077786;28;20452;-76
2024/04/03 03:45:13;;;;;;;16.30;13.87;;;;;;;;;;5076950;28;20455;-76
2024/04/03 03:47:39;;;;;;;15.00;13.50;;;;;;;;;;5081462;28;20489;-76
2024/04/03 03:52:50;;;;;;;17.23;13.30;;;;;;;;;;5076773;28;20443;-76
2024/04/03 03:55:16;;;;;;;17.47;15.20;;;;;;;;;;5079036;28;21005;-76
2024/04/03 03:57:43;;;;;;;18.80;14.70;;;;;;;;;;5079478;28;20466;-75
2024/04/03 04:00:11;;;;;;;18.90;15.33;;;;;;;;;;5077116;28;20456;-75
2024/04/03 04:02:38;;;;;;;22.07;15.17;;;;;;;;;;5076471;28;20490;-76
2024/04/03 04:05:04;;;;;;;19.07;17.07;;;;;;;;;;5077721;28;20979;-76
2024/04/03 04:07:32;;;;;;;23.17;17.80;;;;;;;;;;5075692;28;20457;-77
2024/04/03 04:09:59;;;;;;;22.80;17.60;;;;;;;;;;5075242;28;20455;-77
2024/04/03 04:12:25;;;;;;;22.17;17.23;;;;;;;;;;5076777;28;20444;-76
2024/04/03 04:14:52;;;;;;;23.50;18.10;;;;;;;;;;5080175;28;20488;-77
2024/04/03 04:17:21;;;;;;;23.10;18.07;;;;;;;;;;5076792;28;20798;-77
2024/04/03 04:19:47;;;;;;;20.23;16.77;;;;;;;;;;5076455;28;21153;-77
2024/04/03 04:22:14;;;;;;;24.27;19.07;;;;;;;;;;5075516;28;20895;-77
2024/04/03 04:24:39;;;;;;;22.47;18.70;;;;;;;;;;5078252;28;20246;-77
2024/04/03 04:27:07;;;;;;;24.50;19.13;;;;;;;;;;5076653;28;20441;-77
2024/04/03 04:29:35;;;;;;;22.17;17.97;;;;;;;;;;5076069;28;20273;-78
2024/04/03 04:32:02;;;;;;;24.07;18.13;;;;;;;;;;5074747;28;20464;-77
2024/04/03 04:34:29;;;;;;;25.53;18.67;;;;;;;;;;5070324;28;20965;-78
2024/04/03 04:36:55;;;;;;;24.97;17.90;;;;;;;;;;5074352;28;20468;-78
2024/04/03 04:39:21;;;;;;;25.17;18.30;;;;;;;;;;5075905;28;20484;-77
2024/04/03 04:41:49;;;;;;;20.10;16.10;;;;;;;;;;5074350;28;20455;-77
2024/04/03 04:44:14;;;;;;;19.40;15.97;;;;;;;;;;5075880;28;20249;-78
2024/04/03 04:46:40;;;;;;;17.30;14.90;;;;;;;;;;5074099;28;20836;-78
2024/04/03 04:49:06;;;;;;;20.77;15.40;;;;;;;;;;5076494;28;20253;-78
2024/04/03 04:51:34;;;;;;;19.70;15.70;;;;;;;;;;5081313;28;20870;-77
2024/04/03 04:54:00;;;;;;;20.10;14.83;;;;;;;;;;5069404;28;20209;-78
2024/04/03 04:56:27;;;;;;;17.17;14.47;;;;;;;;;;5076052;28;20484;-78
2024/04/03 04:58:52;;;;;;;17.37;13.13;;;;;;;;;;5076305;28;20452;-78
2024/04/03 05:01:19;;;;;;;17.00;12.33;;;;;;;;;;5072714;28;20471;-78
2024/04/03 05:03:45;;;;;;;14.63;11.87;;;;;;;;;;5073708;28;20209;-76
2024/04/03 05:06:15;;;;;;;13.50;11.43;;;;;;;;;;5075560;28;20444;-76
2024/04/03 05:08:42;;;;;;;17.53;12.90;;;;;;;;;;5075735;28;20552;-76
2024/04/03 05:11:08;;;;;;;15.07;12.40;;;;;;;;;;5072274;28;20925;-76
2024/04/03 05:13:34;;;;;;;18.03;13.40;;;;;;;;;;5073919;28;20460;-76
2024/04/03 05:16:05;;;;;;;14.87;12.57;;;;;;;;;;5074038;28;20529;-76
2024/04/03 05:18:30;;;;;;;18.87;12.60;;;;;;;;;;5075118;28;20210;-77
2024/04/03 05:20:57;;;;;;;18.60;13.33;;;;;;;;;;5086779;28;20512;-77
2024/04/03 05:23:22;;;;;;;19.40;13.97;;;;;;;;;;5095626;28;20721;-77
2024/04/03 05:25:57;;;;;;;14.20;12.40;;;;;;;;;;5096110;28;20525;-77
2024/04/03 05:28:22;;;;;;;17.10;13.90;;;;;;;;;;5096665;28;20228;-77
2024/04/03 05:30:49;;;;;;;16.40;13.93;;;;;;;;;;5097253;28;20466;-77
2024/04/03 05:33:14;;;;;;;14.40;12.60;;;;;;;;;;5093503;28;20236;-77
2024/04/03 05:35:41;;;;;;;17.60;14.70;;;;;;;;;;5097519;28;20470;-77
2024/04/03 05:38:06;;;;;;;13.00;11.63;;;;;;;;;;5093269;28;20206;-77
2024/04/03 05:40:33;;;;;;;15.13;13.63;;;;;;;;;;5092821;28;20810;-77
2024/04/03 05:42:59;;;;;;;16.77;14.03;;;;;;;;;;5086996;28;20202;-77
2024/04/03 05:45:26;;;;;;;14.80;13.23;;;;;;;;;;5095958;28;21721;-76
2024/04/03 05:47:51;;;;;;;17.53;13.47;;;;;;;;;;5092234;28;20743;-77
2024/04/03 05:50:18;;;;;;;16.60;12.80;;;;;;;;;;5094535;28;20489;-77
2024/04/03 05:52:43;;;;;;;23.17;14.53;;;;;;;;;;5093333;28;21318;-76
2024/04/03 05:55:10;;;;;;;15.67;14.00;;;;;;;;;;5092000;28;20569;-78
2024/04/03 05:57:35;;;;;;;15.90;14.20;;;;;;;;;;5096285;28;20212;-77
2024/04/03 06:00:05;;;;;;;17.40;14.00;;;;;;;;;;5099797;28;20454;-77
2024/04/03 06:02:31;;;;;;;16.50;13.53;;;;;;;;;;5096491;28;20213;-77
2024/04/03 06:04:57;;;;;;;18.23;13.30;;;;;;;;;;5098872;28;20919;-78
2024/04/03 06:07:22;;;;;;;16.37;13.03;;;;;;;;;;5093027;28;20240;-77
2024/04/03 06:09:49;;;;;;;14.63;12.07;;;;;;;;;;5101267;28;20442;-77
2024/04/03 06:12:14;;;;;;;14.57;13.00;;;;;;;;;;5096867;28;20219;-78
2024/04/03 06:14:41;;;;;;;18.33;13.00;;;;;;;;;;5096212;28;20450;-77
2024/04/03 06:17:08;;;;;;;17.40;11.50;;;;;;;;;;5094798;28;20220;-77
2024/04/03 06:19:34;;;;;;;14.30;12.33;;;;;;;;;;5090998;28;20458;-77
2024/04/03 06:22:00;;;;;;;14.13;12.27;;;;;;;;;;5085532;28;20536;-76
2024/04/03 06:24:26;;;;;;;15.50;12.30;;;;;;;;;;5079207;28;20467;-75
2024/04/03 06:26:52;;;;;;;12.53;11.20;;;;;;;;;;5075734;28;20225;-76
2024/04/03 06:29:18;;;;;;;12.93;11.20;;;;;;;;;;5075978;28;21082;-75
2024/04/03 06:31:44;;;;;;;11.73;10.53;;;;;;;;;;5073766;28;20231;-76
2024/04/03 06:34:12;;;;;;;12.67;11.47;;;;;;;;;;5076246;28;20490;-77
2024/04/03 06:36:38;;;;;;;14.47;11.03;;;;;;;;;;5076923;28;20213;-76
2024/04/03 06:39:04;;;;;;;10.60;9.47;;;;;;;;;;5074937;28;20466;-76
2024/04/03 06:41:29;;;;;;;12.83;10.33;;;;;;;;;;5076255;28;20202;-76
2024/04/03 06:43:56;;;;;;;12.23;10.87;;;;;;;;;;5077756;28;20443;-76
2024/04/03 06:46:21;;;;;;;10.37;9.30;;;;;;;;;;5076335;28;20243;-76
2024/04/03 06:48:48;;;;;;;11.90;9.43;;;;;;;;;;5077323;28;20455;-76
2024/04/03 06:51:15;;;;;;;9.80;8.50;;;;;;;;;;5076467;28;20231;-75
2024/04/03 06:53:42;;;;;;;9.97;9.00;;;;;;;;;;5076804;28;20452;-75
2024/04/03 06:56:07;;;;;;;11.30;8.00;;;;;;;;;;5077262;28;20490;-75
2024/04/03 06:58:37;;;;;;;10.50;8.03;;;;;;;;;;5076663;28;20436;-73
2024/04/03 07:01:03;;;;;;;9.53;8.63;;;;;;;;;;5076950;28;20214;-74
2024/04/03 07:03:30;;;;;;;9.67;8.13;;;;;;;;;;5076294;28;20482;-77
2024/04/03 07:05:55;;;;;;;9.67;8.67;;;;;;;;;;5075504;28;20221;-75
2024/04/03 07:08:23;;;;;;;8.97;8.17;;;;;;;;;;5077325;28;20474;-77
2024/04/03 07:10:49;;;;;;;8.90;7.97;;;;;;;;;;5078716;28;20239;-77
2024/04/03 07:13:15;;;;;;;9.10;7.80;;;;;;;;;;5080821;28;20435;-76
2024/04/03 07:15:44;;;;;;;12.20;7.90;;;;;;;;;;5082342;28;20230;-76
2024/04/03 07:18:11;;;;;;;12.13;8.90;;;;;;;;;;5069139;28;20479;-75
2024/04/03 07:20:36;;;;;;;11.20;8.20;;;;;;;;;;5075094;28;20484;-77
2024/04/03 07:23:02;;;;;;;9.90;8.90;;;;;;;;;;5071414;28;20544;-77
2024/04/03 07:25:30;;;;;;;16.30;8.50;;;;;;;;;;5068350;28;20217;-72
2024/04/03 07:27:57;;;;;;;10.10;8.20;;;;;;;;;;5067367;28;20440;-74
2024/04/03 07:30:23;;;;;;;8.30;7.50;;;;;;;;;;5067930;28;20463;-74
2024/04/03 07:32:49;;;;;;;9.37;8.47;;;;;;;;;;5069157;28;20484;-76
2024/04/03 07:35:15;;;;;;;8.10;7.30;;;;;;;;;;5069093;28;20279;-73
2024/04/03 07:37:42;;;;;;;8.33;7.53;;;;;;;;;;5067797;28;20459;-76
2024/04/03 07:40:08;;;;;;;8.40;7.70;;;;;;;;;;5067697;28;20205;-73
2024/04/03 07:42:38;;;;;;;9.37;8.50;;;;;;;;;;5070139;28;20455;-77
2024/04/03 07:45:04;;;;;;;8.43;7.53;;;;;;;;;;5066558;28;20462;-75
2024/04/03 07:47:31;;;;;;;8.97;8.13;;;;;;;;;;5071326;28;20451;-76
2024/04/03 07:49:56;;;;;;;8.63;7.73;;;;;;;;;;5069555;28;20464;-75
2024/04/03 07:52:23;;;;;;;10.13;9.23;;;;;;;;;;5070207;28;20466;-75
2024/04/03 07:54:48;;;;;;;9.53;8.53;;;;;;;;;;5068020;28;20210;-77
2024/04/03 07:57:15;;;;;;;8.23;7.40;;;;;;;;;;5072525;28;20492;-77
2024/04/03 07:59:42;;;;;;;10.27;7.63;;;;;;;;;;5073385;28;20255;-76
2024/04/03 08:02:08;;;;;;;8.20;7.40;;;;;;;;;;5065745;28;20480;-75
2024/04/03 08:04:36;;;;;;;8.43;7.60;;;;;;;;;;5066480;28;20453;-75
2024/04/03 08:07:02;;;;;;;9.93;8.37;;;;;;;;;;5071492;28;20555;-77
2024/04/03 08:09:30;;;;;;;8.70;7.80;;;;;;;;;;5073780;28;21163;-77
2024/04/03 08:11:56;;;;;;;8.33;7.07;;;;;;;;;;5076327;28;20462;-77
2024/04/03 08:14:22;;;;;;;10.10;7.80;;;;;;;;;;5076759;28;20459;-77
2024/04/03 08:16:50;;;;;;;9.57;7.20;;;;;;;;;;5074425;28;20612;-78
2024/04/03 08:19:15;;;;;;;7.93;7.13;;;;;;;;;;5071824;28;20221;-77
2024/04/03 08:21:44;;;;;;;6.80;6.20;;;;;;;;;;5076162;28;20487;-77
2024/04/03 08:24:10;;;;;;;10.27;6.87;;;;;;;;;;5076266;28;20212;-77
2024/04/03 08:26:36;;;;;;;6.67;6.00;;;;;;;;;;5077771;28;20436;-77
2024/04/03 08:29:02;;;;;;;7.40;6.70;;;;;;;;;;5073248;28;20479;-79
2024/04/03 08:31:29;;;;;;;6.90;6.27;;;;;;;;;;5072304;28;20463;-77
2024/04/03 08:33:57;;;;;;;7.63;6.40;;;;;;;;;;5073267;28;20238;-77
2024/04/03 08:36:24;;;;;;;7.40;6.20;;;;;;;;;;5067818;28;20724;-77
2024/04/03 08:38:49;;;;;;;7.30;6.50;;;;;;;;;;5072375;28;21026;-77
2024/04/03 08:41:16;;;;;;;5.97;5.07;;;;;;;;;;5073728;28;20447;-75
2024/04/03 08:43:41;;;;;;;9.43;6.40;;;;;;;;;;5073940;28;20206;-77
2024/04/03 08:46:09;;;;;;;8.63;5.67;;;;;;;;;;5071587;28;20848;-78
2024/04/03 08:48:35;;;;;;;5.53;4.90;;;;;;;;;;5066094;28;20214;-82
2024/04/03 08:51:03;;;;;;;7.63;5.10;;;;;;;;;;5069105;28;20448;-81
2024/04/03 08:53:28;;;;;;;4.10;3.70;;;;;;;;;;5068886;28;20464;-81
2024/04/03 08:55:55;;;;;;;5.60;3.50;;;;;;;;;;5068324;28;20909;-80
2024/04/03 08:58:23;;;;;;;4.70;4.30;;;;;;;;;;5069238;28;20217;-80
2024/04/03 09:00:50;;;;;;;4.33;3.90;;;;;;;;;;5063382;28;20535;-79
2024/04/03 09:03:16;;;;;;;10.30;3.90;;;;;;;;;;5069557;28;20453;-79
2024/04/03 09:05:42;;;;;;;8.23;3.70;;;;;;;;;;5066688;28;20520;-80
2024/04/03 09:08:10;;;;;;;4.80;3.50;;;;;;;;;;5068819;28;20490;-77
2024/04/03 09:10:41;;;;;;;4.70;3.90;;;;;;;;;;5070385;28;20452;-80
2024/04/03 09:13:07;;;;;;;4.33;3.40;;;;;;;;;;5070456;28;20459;-80
2024/04/03 09:15:34;;;;;;;4.27;3.87;;;;;;;;;;5069158;28;20487;-82
2024/04/03 09:17:59;;;;;;;4.43;4.07;;;;;;;;;;5067843;28;20233;-78
2024/04/03 09:20:26;;;;;;;9.20;4.40;;;;;;;;;;5071114;28;20480;-76
2024/04/03 09:22:51;;;;;;;8.00;4.50;;;;;;;;;;5067429;28;20468;-77
2024/04/03 09:25:20;;;;;;;5.17;4.27;;;;;;;;;;5073508;28;20455;-72
2024/04/03 09:27:46;;;;;;;6.80;4.17;;;;;;;;;;5068061;28;20237;-72
2024/04/03 09:30:15;;;;;;;5.63;4.10;;;;;;;;;;5071945;28;20455;-72
2024/04/03 09:32:40;;;;;;;4.97;4.47;;;;;;;;;;5074085;28;20209;-72
2024/04/03 09:35:08;;;;;;;4.73;4.33;;;;;;;;;;5081812;28;20636;-71
2024/04/03 09:37:35;;;;;;;5.60;3.90;;;;;;;;;;5070448;28;20272;-71
2024/04/03 09:40:03;;;;;;;5.83;4.57;;;;;;;;;;5077158;28;20443;-67
2024/04/03 09:42:32;;;;;;;4.30;4.00;;;;;;;;;;5074491;28;20817;-69
2024/04/03 09:44:59;;;;;;;4.10;3.77;;;;;;;;;;5073608;28;20745;-69
2024/04/03 09:47:25;;;;;;;5.63;4.10;;;;;;;;;;5069359;28;20467;-70
2024/04/03 09:49:52;;;;;;;6.90;4.20;;;;;;;;;;5071731;28;20451;-68
2024/04/03 09:52:18;;;;;;;5.53;4.70;;;;;;;;;;5069729;28;20205;-70
2024/04/03 09:54:46;;;;;;;6.80;4.80;;;;;;;;;;5068260;28;20464;-69
2024/04/03 09:57:11;;;;;;;5.40;5.00;;;;;;;;;;5070803;28;20485;-71
2024/04/03 09:59:39;;;;;;;5.73;4.90;;;;;;;;;;5068643;28;20452;-71
2024/04/03 10:02:10;;;;;;;7.33;4.80;;;;;;;;;;5074539;28;20202;-69
2024/04/03 10:04:37;;;;;;;4.40;4.03;;;;;;;;;;5071759;28;20456;-70
2024/04/03 10:07:03;;;;;;;4.53;4.10;;;;;;;;;;5071918;28;20472;-71
2024/04/03 10:09:31;;;;;;;7.63;4.47;;;;;;;;;;5068241;28;20517;-70
2024/04/03 10:11:57;;;;;;;5.40;4.03;;;;;;;;;;5072213;28;20206;-70
2024/04/03 10:14:27;;;;;;;5.03;4.20;;;;;;;;;;5070797;28;21479;-71
2024/04/03 10:16:54;;;;;;;5.63;4.20;;;;;;;;;;5067118;28;20490;-70
2024/04/03 10:19:21;;;;;;;6.73;4.80;;;;;;;;;;5074363;28;20459;-71
2024/04/03 10:21:47;;;;;;;5.70;4.40;;;;;;;;;;5073534;28;20573;-71
2024/04/03 10:24:13;;;;;;;5.03;4.00;;;;;;;;;;5072245;28;20539;-69
2024/04/03 10:26:39;;;;;;;4.17;3.70;;;;;;;;;;5074837;28;20202;-63
2024/04/03 10:29:06;;;;;;;4.77;4.40;;;;;;;;;;5073712;28;20443;-70
2024/04/03 10:31:31;;;;;;;4.73;4.10;;;;;;;;;;5073378;28;20449;-71
2024/04/03 10:33:59;;;;;;;4.13;3.83;;;;;;;;;;5074001;28;20452;-72
2024/04/03 10:36:25;;;;;;;5.63;4.30;;;;;;;;;;5074764;28;20232;-71
2024/04/03 10:38:51;;;;;;;4.47;3.80;;;;;;;;;;5073788;28;20453;-71
2024/04/03 10:41:17;;;;;;;6.87;4.37;;;;;;;;;;5071683;28;20226;-71
2024/04/03 10:43:43;;;;;;;5.40;4.70;;;;;;;;;;5076421;28;20455;-70
2024/04/03 10:46:11;;;;;;;5.60;4.30;;;;;;;;;;5068904;28;20206;-73
2024/04/03 10:48:40;;;;;;;4.37;4.00;;;;;;;;;;5073702;28;20462;-71
2024/04/03 10:51:07;;;;;;;4.40;4.10;;;;;;;;;;5071770;28;20476;-72
2024/04/03 10:53:34;;;;;;;6.17;4.30;;;;;;;;;;5077256;28;20444;-72
2024/04/03 10:56:00;;;;;;;4.43;4.07;;;;;;;;;;5075712;28;20498;-71
2024/04/03 10:58:28;;;;;;;7.63;3.93;;;;;;;;;;5078945;28;20860;-71
2024/04/03 11:00:54;;;;;;;9.07;4.13;;;;;;;;;;5074258;28;20210;-73
2024/04/03 11:03:20;;;;;;;4.33;3.93;;;;;;;;;;5078081;28;20535;-72
2024/04/03 11:05:48;;;;;;;10.10;4.40;;;;;;;;;;5067429;28;20532;-67
2024/04/03 11:08:16;;;;;;;5.50;4.20;;;;;;;;;;5075661;28;20506;-66
2024/04/03 11:10:41;;;;;;;4.30;4.00;;;;;;;;;;5073795;28;20525;-67
2024/04/03 11:13:09;;;;;;;4.53;4.13;;;;;;;;;;5071154;28;20483;-70
2024/04/03 11:15:34;;;;;;;4.57;4.10;;;;;;;;;;5068815;28;20305;-70
2024/04/03 11:18:01;;;;;;;6.97;4.13;;;;;;;;;;5057904;28;20663;-71
2024/04/03 11:20:26;;;;;;;4.77;4.37;;;;;;;;;;5076757;28;20249;-70
2024/04/03 11:22:55;;;;;;;6.13;3.90;;;;;;;;;;5082931;28;20456;-71
2024/04/03 11:25:22;;;;;;;4.63;4.27;;;;;;;;;;5075228;28;20232;-71
2024/04/03 11:27:49;;;;;;;5.50;3.50;;;;;;;;;;5069384;28;20452;-71
2024/04/03 11:30:14;;;;;;;5.90;4.07;;;;;;;;;;5077850;28;20605;-72
2024/04/03 11:32:41;;;;;;;4.60;4.30;;;;;;;;;;5076951;28;20456;-70
2024/04/03 11:35:08;;;;;;;4.00;3.70;;;;;;;;;;5079319;28;20205;-71
2024/04/03 11:37:36;;;;;;;5.10;3.80;;;;;;;;;;5080375;28;21091;-71
2024/04/03 11:40:01;;;;;;;3.50;3.10;;;;;;;;;;5082331;28;20521;-69
2024/04/03 11:42:29;;;;;;;3.70;3.40;;;;;;;;;;5068147;28;20455;-69
2024/04/03 11:44:55;;;;;;;3.93;3.27;;;;;;;;;;5078625;28;20455;-68
2024/04/03 11:47:21;;;;;;;4.50;3.40;;;;;;;;;;5083905;28;20477;-71
2024/04/03 11:49:47;;;;;;;4.77;3.40;;;;;;;;;;5077950;28;20202;-71
2024/04/03 11:52:14;;;;;;;3.93;3.53;;;;;;;;;;5077387;28;20452;-68
2024/04/03 11:54:39;;;;;;;4.57;4.10;;;;;;;;;;5078353;28;20260;-69
2024/04/03 11:57:06;;;;;;;4.00;3.60;;;;;;;;;;5071254;28;21068;-71
2024/04/03 11:59:33;;;;;;;4.37;3.97;;;;;;;;;;5070169;28;20213;-70
2024/04/03 12:01:59;;;;;;;4.50;3.83;;;;;;;;;;5072558;28;20491;-70
2024/04/03 12:04:25;;;;;;;3.70;3.50;;;;;;;;;;5078916;28;21032;-68
2024/04/03 12:06:51;;;;;;;3.83;3.53;;;;;;;;;;5082450;28;20435;-68
2024/04/03 12:09:17;;;;;;;4.00;3.63;;;;;;;;;;5078180;28;20263;-70
2024/04/03 12:11:44;;;;;;;4.23;3.67;;;;;;;;;;5082904;28;20938;-67
2024/04/03 12:14:09;;;;;;;8.73;3.80;;;;;;;;;;5069244;28;20239;-70
2024/04/03 12:16:37;;;;;;;3.80;3.27;;;;;;;;;;5073151;28;20944;-70
2024/04/03 12:19:13;;;;;;;3.30;3.10;;;;;;;;;;5079674;28;20701;-70
2024/04/03 12:21:40;;;;;;;3.20;3.00;;;;;;;;;;5072015;28;20548;-72
2024/04/03 12:24:05;;;;;;;3.40;3.10;;;;;;;;;;5073216;28;21046;-68
2024/04/03 12:26:32;;;;;;;3.20;2.90;;;;;;;;;;5072031;28;20420;-70
2024/04/03 12:28:57;;;;;;;3.90;2.93;;;;;;;;;;5076680;28;20210;-70
2024/04/03 12:31:24;;;;;;;6.90;3.13;;;;;;;;;;5076617;28;20482;-70
2024/04/03 12:33:52;;;;;;;4.07;3.53;;;;;;;;;;5074952;28;20311;-71
2024/04/03 12:36:19;;;;;;;3.40;3.17;;;;;;;;;;5075566;28;20545;-70
2024/04/03 12:38:45;;;;;;;4.90;3.43;;;;;;;;;;5070165;28;20510;-70
2024/04/03 12:41:11;;;;;;;3.47;3.27;;;;;;;;;;5072994;28;20436;-70
2024/04/03 12:43:36;;;;;;;3.47;3.20;;;;;;;;;;5075222;28;20664;-71
2024/04/03 12:46:03;;;;;;;3.33;3.07;;;;;;;;;;5072261;28;20983;-68
2024/04/03 12:48:29;;;;;;;4.37;4.10;;;;;;;;;;5073847;28;20217;-69
2024/04/03 12:50:57;;;;;;;3.60;3.40;;;;;;;;;;5066525;28;20554;-69
2024/04/03 12:53:23;;;;;;;4.13;3.93;;;;;;;;;;5072724;28;20197;-68
2024/04/03 12:55:50;;;;;;;4.00;3.70;;;;;;;;;;5073956;28;20456;-67
2024/04/03 12:58:15;;;;;;;3.50;3.13;;;;;;;;;;5071429;28;20226;-70
2024/04/03 13:00:42;;;;;;;3.87;3.60;;;;;;;;;;5067813;28;20502;-70
2024/04/03 13:03:08;;;;;;;3.90;3.60;;;;;;;;;;5071069;28;20211;-70
2024/04/03 13:05:34;;;;;;;3.37;3.17;;;;;;;;;;5072633;28;20478;-67
2024/04/03 13:08:01;;;;;;;4.00;3.70;;;;;;;;;;5075753;28;20206;-69
2024/04/03 13:10:32;;;;;;;3.13;2.93;;;;;;;;;;5068502;28;20515;-69
2024/04/03 13:12:57;;;;;;;3.87;3.53;;;;;;;;;;5073323;28;20587;-69
2024/04/03 13:15:24;;;;;;;3.80;3.60;;;;;;;;;;5065974;28;20487;-71
2024/04/03 13:17:49;;;;;;;3.60;3.30;;;;;;;;;;5072567;28;20258;-66
2024/04/03 13:20:16;;;;;;;3.70;3.40;;;;;;;;;;5074203;28;20492;-70
2024/04/03 13:22:41;;;;;;;2.97;2.77;;;;;;;;;;5073482;28;20213;-69
2024/04/03 13:25:13;;;;;;;4.00;3.63;;;;;;;;;;5074084;28;21109;-69
2024/04/03 13:27:38;;;;;;;3.40;3.20;;;;;;;;;;5060449;28;20237;-68
2024/04/03 13:30:05;;;;;;;3.40;3.20;;;;;;;;;;5073295;28;20456;-71
2024/04/03 13:32:31;;;;;;;3.40;3.10;;;;;;;;;;5071581;28;20239;-70
2024/04/03 13:34:57;;;;;;;3.50;3.30;;;;;;;;;;5069881;28;20479;-70
2024/04/03 13:37:23;;;;;;;3.77;3.50;;;;;;;;;;5072526;28;20223;-70
2024/04/03 13:39:49;;;;;;;3.57;3.27;;;;;;;;;;5066277;28;20810;-70
2024/04/03 13:42:17;;;;;;;3.30;3.10;;;;;;;;;;5072880;28;20218;-69
2024/04/03 13:44:44;;;;;;;4.37;4.17;;;;;;;;;;5054311;28;20474;-71
2024/04/03 13:47:10;;;;;;;3.93;3.63;;;;;;;;;;5068795;28;20513;-71
2024/04/03 13:49:38;;;;;;;3.70;3.50;;;;;;;;;;5072973;28;20452;-71
2024/04/03 13:52:03;;;;;;;3.90;3.70;;;;;;;;;;5072430;28;20491;-71
2024/04/03 13:54:30;;;;;;;3.57;3.37;;;;;;;;;;5068570;28;20468;-72
2024/04/03 13:56:55;;;;;;;4.50;3.50;;;;;;;;;;5070441;28;20256;-73
2024/04/03 13:59:23;;;;;;;3.30;3.00;;;;;;;;;;5074154;28;20448;-72
2024/04/03 14:01:49;;;;;;;3.33;3.13;;;;;;;;;;5076257;28;20217;-70
2024/04/03 14:04:15;;;;;;;3.10;2.90;;;;;;;;;;5065330;28;20558;-72
2024/04/03 14:06:41;;;;;;;3.97;3.57;;;;;;;;;;5073098;28;20214;-72
2024/04/03 14:09:08;;;;;;;3.60;3.30;;;;;;;;;;5075133;28;20452;-73
2024/04/03 14:11:34;;;;;;;2.80;2.60;;;;;;;;;;5063255;28;20238;-72
2024/04/03 14:14:03;;;;;;;3.00;2.80;;;;;;;;;;5072030;28;20467;-74
2024/04/03 14:16:30;;;;;;;3.43;3.23;;;;;;;;;;5073646;28;20474;-69
2024/04/03 14:18:56;;;;;;;3.83;3.53;;;;;;;;;;5075493;28;20476;-70
2024/04/03 14:21:22;;;;;;;3.70;3.50;;;;;;;;;;5078099;28;20491;-71
2024/04/03 14:23:48;;;;;;;3.90;3.70;;;;;;;;;;5078394;28;20447;-71
2024/04/03 14:26:14;;;;;;;5.00;3.30;;;;;;;;;;5069672;28;20214;-69
2024/04/03 14:28:41;;;;;;;4.03;3.73;;;;;;;;;;5074253;28;20466;-70
2024/04/03 14:31:07;;;;;;;3.47;3.17;;;;;;;;;;5073936;28;20225;-72